Terminal Aerodrome Forecast
Issued by NWS

Current Version | Previous Version | Graphics & Text | Print | Product List | Glossary On
Versions: 1 2 3 4 5 6 7 8 9 10 11 12 13 14 15 16 17 18 19 20 21 22 23 24 25 26
614
FTUS41 KRLX 210826 AAA
TAFCKB
TAF AMD
KCKB 210826Z 2108/2206 VRB03KT 3SM BR SCT003 OVC035
      TEMPO 2109/2112 BKN003
     FM211200 12004KT 6SM BR OVC025
     FM211900 VRB03KT 4SM SHRA BR BKN020
     FM220000 31005KT 4SM SHRA BR OVC015
     FM220200 34004KT 4SM -RADZ BR OVC008=

USA.gov is the U.S. government's official web portal to all federal, state and local government web resources and services.